createdAt,value
2019-05-21T00:00:08.352Z,36.05
2019-05-21T00:01:13.707Z,35.60
2019-05-21T00:02:18.519Z,34.98
2019-05-21T00:03:23.851Z,33.85
2019-05-21T00:04:28.796Z,34.55
2019-05-21T00:05:34.231Z,34.15
2019-05-21T00:06:41.796Z,33.38
2019-05-21T00:07:50.775Z,32.17
2019-05-21T00:08:55.993Z,29.30
2019-05-21T00:10:01.336Z,30.43
2019-05-21T00:11:06.376Z,32.35
2019-05-21T00:12:17.072Z,33.05
2019-05-21T00:13:19.673Z,30.55
2019-05-21T00:14:25.300Z,30.55
2019-05-21T00:15:30.530Z,29.18
2019-05-21T00:16:37.312Z,28.83
2019-05-21T00:17:49.824Z,27.27
2019-05-21T00:18:56.760Z,27.80
2019-05-21T00:20:01.802Z,26.93
2019-05-21T00:21:08.558Z,27.42
2019-05-21T00:22:13.377Z,27.00
2019-05-21T00:23:20.639Z,28.65
2019-05-21T00:24:25.511Z,28.20
2019-05-21T00:25:30.946Z,28.75
2019-05-21T00:26:36.158Z,26.97
2019-05-21T00:27:41.558Z,25.85
2019-05-21T00:29:21.694Z,27.10
2019-05-21T00:31:02.738Z,23.35
2019-05-21T00:32:43.609Z,25.05
2019-05-21T00:34:24.301Z,24.85
2019-05-21T00:36:06.471Z,22.00
2019-05-21T00:37:46.549Z,22.60
2019-05-21T00:39:27.419Z,23.80
2019-05-21T00:41:07.559Z,23.57
2019-05-21T00:42:11.077Z,20.60
2019-05-21T00:43:18.677Z,21.60
2019-05-21T00:44:24.266Z,20.52
2019-05-21T00:45:29.725Z,23.60
2019-05-21T00:46:35.196Z,23.42
2019-05-21T00:47:40.297Z,20.85
2019-05-21T00:48:46.155Z,21.68
2019-05-21T00:49:51.013Z,20.75
2019-05-21T00:50:57.263Z,20.05
2019-05-21T00:52:07.781Z,18.70
2019-05-21T00:53:09.332Z,18.48
2019-05-21T00:54:18.366Z,19.25
2019-05-21T00:55:24.016Z,21.12
2019-05-21T00:56:28.916Z,20.00
2019-05-21T00:57:34.331Z,21.35
2019-05-21T00:58:39.252Z,21.93
2019-05-21T00:59:44.591Z,22.07
2019-05-21T01:00:50.239Z,20.50
2019-05-21T01:01:56.031Z,20.20
2019-05-21T01:03:03.512Z,21.68
2019-05-21T01:04:08.861Z,21.97
2019-05-21T01:05:16.735Z,20.88
2019-05-21T01:06:22.307Z,20.08
2019-05-21T01:07:29.978Z,20.43
2019-05-21T01:08:35.495Z,20.35
2019-05-21T01:09:40.308Z,20.68
2019-05-21T01:10:45.712Z,20.55
2019-05-21T01:11:51.210Z,19.35
2019-05-21T01:12:56.868Z,20.95
2019-05-21T01:14:01.742Z,20.62
2019-05-21T01:15:07.480Z,21.97
2019-05-21T01:16:12.338Z,22.00
2019-05-21T01:17:17.675Z,20.08
2019-05-21T01:18:23.367Z,21.95
2019-05-21T01:19:28.933Z,23.05
2019-05-21T01:20:36.223Z,21.45
2019-05-21T01:21:41.608Z,22.85
2019-05-21T01:22:46.504Z,22.90
2019-05-21T01:23:52.357Z,22.30
2019-05-21T01:24:57.443Z,22.80
2019-05-21T01:26:02.796Z,22.42
2019-05-21T01:27:07.720Z,20.57
2019-05-21T01:28:13.067Z,22.87
2019-05-21T01:29:18.057Z,21.93
2019-05-21T01:30:24.005Z,21.60
2019-05-21T01:31:29.832Z,19.92
2019-05-21T01:32:35.230Z,21.65
2019-05-21T01:33:40.011Z,20.72
2019-05-21T01:34:45.379Z,20.70
2019-05-21T01:35:50.236Z,22.25
2019-05-21T01:36:55.616Z,20.50
2019-05-21T01:38:00.405Z,20.80
2019-05-21T01:39:08.268Z,21.48
2019-05-21T01:40:13.257Z,22.48
2019-05-21T01:41:18.607Z,19.10
2019-05-21T01:42:23.467Z,21.30
2019-05-21T01:43:28.959Z,21.42
2019-05-21T01:44:33.805Z,22.42
2019-05-21T01:45:39.143Z,21.15
2019-05-21T01:46:43.915Z,21.40
2019-05-21T01:47:49.631Z,21.15
2019-05-21T01:48:55.868Z,21.35
2019-05-21T01:50:01.197Z,21.05
2019-05-21T01:51:06.034Z,20.55
2019-05-21T01:52:11.819Z,23.05
2019-05-21T01:53:16.627Z,21.20
2019-05-21T01:54:22.066Z,21.37
2019-05-21T01:55:26.908Z,20.88
2019-05-21T01:56:32.270Z,21.55
2019-05-21T01:57:37.055Z,20.70
2019-05-21T01:58:47.192Z,22.07
2019-05-21T01:59:49.573Z,20.92
2019-05-21T02:00:55.086Z,21.30
2019-05-21T02:02:00.086Z,22.15
2019-05-21T02:03:05.675Z,22.65
2019-05-21T02:04:10.573Z,21.45
2019-05-21T02:05:16.060Z,22.58
2019-05-21T02:06:21.117Z,20.88
2019-05-21T02:07:26.548Z,21.70
2019-05-21T02:08:31.425Z,21.62
2019-05-21T02:09:55.152Z,22.50
2019-05-21T02:11:00.339Z,23.57
2019-05-21T02:12:05.804Z,21.93
2019-05-21T02:13:10.639Z,22.98
2019-05-21T02:14:15.985Z,23.55
2019-05-21T02:15:21.957Z,22.48
2019-05-21T02:16:27.354Z,25.92
2019-05-21T02:17:32.135Z,23.47
2019-05-21T02:18:37.565Z,23.18
2019-05-21T02:19:42.372Z,24.40
2019-05-21T02:20:47.787Z,23.25
2019-05-21T02:21:52.984Z,22.07
2019-05-21T02:22:58.359Z,25.37
2019-05-21T02:24:03.432Z,23.40
2019-05-21T02:25:09.926Z,24.10
2019-05-21T02:26:14.747Z,22.75
2019-05-21T02:27:20.107Z,23.18
2019-05-21T02:28:24.956Z,23.70
2019-05-21T02:29:30.572Z,21.55
2019-05-21T02:30:35.437Z,22.15
2019-05-21T02:31:40.856Z,21.50
2019-05-21T02:32:45.948Z,21.82
2019-05-21T02:33:53.802Z,21.55
2019-05-21T02:34:58.717Z,23.30
2019-05-21T02:36:04.155Z,23.77
2019-05-21T02:37:09.050Z,21.07
2019-05-21T02:38:14.481Z,24.47
2019-05-21T02:39:19.762Z,24.30
2019-05-21T02:40:25.613Z,23.65
2019-05-21T02:41:30.504Z,23.98
2019-05-21T02:42:35.886Z,23.07
2019-05-21T02:43:43.264Z,25.30
2019-05-21T02:44:48.847Z,25.75
2019-05-21T02:45:53.707Z,27.17
2019-05-21T02:46:59.084Z,27.30
2019-05-21T02:48:04.046Z,23.40
2019-05-21T02:49:09.405Z,25.10
2019-05-21T02:50:15.048Z,25.27
2019-05-21T02:51:20.528Z,24.23
2019-05-21T02:52:25.368Z,23.75
2019-05-21T02:53:34.386Z,24.72
2019-05-21T02:54:41.387Z,23.87
2019-05-21T02:55:44.287Z,24.55
2019-05-21T02:56:51.968Z,25.88
2019-05-21T02:57:57.465Z,22.65
2019-05-21T02:59:02.303Z,22.10
2019-05-21T03:00:39.230Z,22.87
2019-05-21T03:02:00.080Z,23.85
2019-05-21T03:03:06.667Z,19.62
2019-05-21T03:04:11.731Z,22.50
2019-05-21T03:05:17.174Z,22.32
2019-05-21T03:06:21.988Z,24.05
2019-05-21T03:07:28.070Z,23.05
2019-05-21T03:08:35.439Z,22.55
2019-05-21T03:09:40.833Z,23.40
2019-05-21T03:10:46.282Z,21.87
2019-05-21T03:11:51.951Z,23.85
2019-05-21T03:12:56.839Z,23.90
2019-05-21T03:14:05.056Z,23.80
2019-05-21T03:15:12.533Z,24.45
2019-05-21T03:16:17.905Z,22.67
2019-05-21T03:17:23.225Z,23.32
2019-05-21T03:18:29.146Z,21.60
2019-05-21T03:19:34.085Z,23.50
2019-05-21T03:20:37.761Z,23.75
2019-05-21T03:21:42.606Z,24.00
2019-05-21T03:22:48.038Z,23.92
2019-05-21T03:23:53.070Z,25.08
2019-05-21T03:25:02.101Z,25.48
2019-05-21T03:26:07.965Z,26.75
2019-05-21T03:27:15.626Z,26.90
2019-05-21T03:28:20.577Z,27.17
2019-05-21T03:29:26.458Z,27.17
2019-05-21T03:30:31.471Z,24.87
2019-05-21T03:31:36.964Z,25.92
2019-05-21T03:32:43.738Z,24.92
2019-05-21T03:33:49.046Z,26.87
2019-05-21T03:34:54.066Z,23.87
2019-05-21T03:36:02.126Z,23.87
2019-05-21T03:37:09.898Z,24.37
2019-05-21T03:38:15.395Z,25.00
2019-05-21T03:39:20.359Z,24.27
2019-05-21T03:40:27.733Z,24.12
2019-05-21T03:41:34.513Z,22.55
2019-05-21T03:42:39.896Z,22.75
2019-05-21T03:43:48.778Z,24.72
2019-05-21T03:44:59.767Z,21.20
2019-05-21T03:46:00.869Z,23.92
2019-05-21T03:47:07.073Z,22.55
2019-05-21T03:48:11.946Z,23.50
2019-05-21T03:49:17.472Z,23.85
2019-05-21T03:50:25.386Z,21.95
2019-05-21T03:51:30.809Z,20.60
2019-05-21T03:55:16.833Z,20.08
2019-05-21T03:56:23.342Z,20.17
2019-05-21T03:57:28.157Z,21.90
2019-05-21T03:58:34.355Z,21.33
2019-05-21T03:59:42.309Z,19.40
2019-05-21T04:00:48.873Z,17.50
2019-05-21T04:01:53.801Z,16.90
2019-05-21T04:02:59.362Z,16.65
2019-05-21T04:04:04.311Z,16.30
2019-05-21T04:05:10.457Z,17.75
2019-05-21T04:06:16.579Z,17.48
2019-05-21T04:07:22.036Z,17.27
2019-05-21T04:08:26.985Z,16.55
2019-05-21T04:09:32.930Z,15.78
2019-05-21T04:10:39.680Z,15.55
2019-05-21T04:11:45.509Z,13.98
2019-05-21T04:13:09.771Z,14.23
2019-05-21T04:14:31.991Z,12.37
2019-05-21T04:15:42.941Z,13.32
2019-05-21T04:16:57.253Z,14.03
2019-05-21T04:18:07.799Z,12.23
2019-05-21T04:19:23.438Z,13.83
2019-05-21T04:20:28.558Z,13.62
2019-05-21T04:21:35.113Z,13.58
2019-05-21T04:22:53.826Z,12.47
2019-05-21T04:24:01.282Z,13.43
2019-05-21T04:25:08.326Z,12.37
2019-05-21T04:26:14.040Z,11.73
2019-05-21T04:27:22.353Z,12.90
2019-05-21T04:28:27.807Z,13.13
2019-05-21T04:29:33.244Z,13.68
2019-05-21T04:30:39.041Z,13.43
2019-05-21T04:31:43.951Z,12.93
2019-05-21T04:32:49.556Z,13.75
2019-05-21T04:33:54.570Z,14.05
2019-05-21T04:35:00.710Z,14.35
2019-05-21T04:36:06.082Z,14.38
2019-05-21T04:37:12.174Z,16.07
2019-05-21T04:38:18.159Z,16.75
2019-05-21T04:39:23.884Z,15.30
2019-05-21T04:40:30.383Z,13.20
2019-05-21T04:41:35.889Z,13.35
2019-05-21T04:42:40.821Z,13.95
2019-05-21T04:43:46.275Z,12.40
2019-05-21T04:44:51.521Z,15.05
2019-05-21T04:45:57.053Z,12.90
2019-05-21T04:47:02.064Z,13.65
2019-05-21T04:48:07.879Z,14.70
2019-05-21T04:49:12.750Z,14.30
2019-05-21T04:50:18.273Z,15.15
2019-05-21T04:51:23.740Z,16.15
2019-05-21T04:52:29.233Z,17.73
2019-05-21T04:53:35.196Z,17.05
2019-05-21T04:54:41.269Z,18.62
2019-05-21T04:55:46.469Z,18.42
2019-05-21T04:56:52.432Z,21.20
2019-05-21T04:57:57.518Z,21.73
2019-05-21T04:59:02.951Z,20.48
2019-05-21T05:00:09.063Z,22.00
2019-05-21T05:01:14.511Z,23.57
2019-05-21T05:02:20.170Z,24.18
2019-05-21T05:03:25.715Z,25.90
2019-05-21T05:04:30.596Z,24.98
2019-05-21T05:05:36.016Z,27.10
2019-05-21T05:06:41.886Z,26.02
2019-05-21T05:07:48.057Z,27.70
2019-05-21T05:08:53.156Z,26.60
2019-05-21T05:09:58.704Z,28.60
2019-05-21T05:11:09.349Z,27.75
2019-05-21T05:12:14.915Z,29.10
2019-05-21T05:13:20.582Z,28.98
2019-05-21T05:14:26.378Z,29.27
2019-05-21T05:15:31.256Z,28.90
2019-05-21T05:17:39.553Z,31.37
2019-05-21T05:18:45.368Z,33.95
2019-05-21T05:19:50.301Z,33.67
2019-05-21T05:20:56.081Z,34.58
2019-05-21T05:22:01.955Z,33.63
2019-05-21T05:23:07.333Z,35.30
2019-05-21T05:24:12.304Z,37.90
2019-05-21T05:25:18.122Z,36.28
2019-05-21T05:26:23.547Z,34.33
2019-05-21T05:27:31.828Z,34.05
2019-05-21T05:28:36.347Z,32.23
2019-05-21T05:29:41.799Z,35.63
2019-05-21T05:30:47.402Z,35.08
2019-05-21T05:31:52.748Z,33.65
2019-05-21T05:32:57.925Z,37.60
2019-05-21T05:34:03.824Z,36.25
2019-05-21T05:35:09.281Z,37.75
2019-05-21T05:36:14.705Z,35.63
2019-05-21T05:37:20.184Z,34.03
2019-05-21T05:38:26.070Z,35.35
2019-05-21T05:39:31.087Z,34.67
2019-05-21T05:40:36.968Z,36.23
2019-05-21T05:41:42.643Z,35.50
2019-05-21T05:42:49.040Z,36.13
2019-05-21T05:43:54.512Z,36.85
2019-05-21T05:45:00.094Z,39.27
2019-05-21T05:46:05.957Z,38.20
2019-05-21T05:47:11.317Z,39.18
2019-05-21T05:48:16.985Z,39.88
2019-05-21T05:49:27.390Z,39.15
2019-05-21T05:50:36.942Z,40.90
2019-05-21T05:51:47.688Z,42.13
2019-05-21T05:52:53.253Z,41.88
2019-05-21T05:53:58.899Z,45.58
2019-05-21T05:55:03.905Z,43.42
2019-05-21T05:56:09.608Z,42.83
2019-05-21T05:57:17.823Z,43.85
2019-05-21T05:58:23.180Z,42.83
2019-05-21T05:59:28.269Z,44.35
2019-05-21T06:00:33.611Z,42.80
2019-05-21T06:01:40.083Z,45.10
2019-05-21T06:02:53.740Z,43.33
2019-05-21T06:03:58.582Z,44.48
2019-05-21T06:05:05.875Z,40.67
2019-05-21T06:06:13.663Z,42.93
2019-05-21T06:07:19.217Z,44.48
2019-05-21T06:08:24.040Z,44.85
2019-05-21T06:09:29.632Z,42.33
2019-05-21T06:10:34.522Z,43.70
2019-05-21T06:11:40.861Z,44.00
2019-05-21T06:12:45.815Z,42.83
2019-05-21T06:13:51.280Z,39.80
2019-05-21T06:14:56.251Z,40.92
2019-05-21T06:16:02.330Z,40.48
2019-05-21T06:17:07.163Z,42.43
2019-05-21T06:18:12.556Z,41.05
2019-05-21T06:19:17.433Z,40.43
2019-05-21T06:20:23.297Z,41.70
2019-05-21T06:21:29.821Z,44.65
2019-05-21T06:22:35.262Z,39.92
2019-05-21T06:23:40.054Z,37.58
2019-05-21T06:24:45.723Z,40.17
2019-05-21T06:25:50.551Z,40.20
2019-05-21T06:26:57.124Z,39.83
2019-05-21T06:28:03.300Z,37.58
2019-05-21T06:29:10.265Z,42.85
2019-05-21T06:30:17.061Z,40.55
2019-05-21T06:31:22.780Z,38.88
2019-05-21T06:32:30.949Z,41.35
2019-05-21T06:33:36.416Z,39.55
2019-05-21T06:34:41.218Z,37.17
2019-05-21T06:35:49.786Z,37.83
2019-05-21T06:36:57.040Z,36.98
2019-05-21T06:38:16.676Z,37.15
2019-05-21T06:39:09.288Z,37.80
2019-05-21T06:40:15.048Z,37.03
2019-05-21T06:41:19.898Z,36.95
2019-05-21T06:42:25.321Z,37.50
2019-05-21T06:43:30.201Z,34.65
2019-05-21T06:44:35.641Z,34.88
2019-05-21T06:45:40.415Z,34.08
2019-05-21T06:46:47.047Z,33.42
2019-05-21T06:47:52.653Z,34.90
2019-05-21T06:48:58.276Z,35.20
2019-05-21T06:50:03.481Z,35.03
2019-05-21T06:51:08.948Z,37.53
2019-05-21T06:52:14.281Z,34.10
2019-05-21T06:53:19.632Z,37.05
2019-05-21T06:54:24.900Z,37.15
2019-05-21T06:55:30.314Z,36.00
2019-05-21T06:56:38.345Z,36.75
2019-05-21T06:57:44.110Z,39.60
2019-05-21T06:58:49.242Z,37.55
2019-05-21T06:59:55.740Z,35.90
2019-05-21T07:01:01.998Z,35.00
2019-05-21T07:02:07.736Z,34.85
2019-05-21T07:03:12.733Z,33.90
2019-05-21T07:04:18.294Z,35.30
2019-05-21T07:05:25.862Z,38.08
2019-05-21T07:06:31.714Z,35.50
2019-05-21T07:07:37.740Z,34.20
2019-05-21T07:08:44.184Z,34.03
2019-05-21T07:09:49.115Z,36.60
2019-05-21T07:10:55.968Z,36.48
2019-05-21T07:12:01.747Z,37.30
2019-05-21T07:13:07.264Z,37.75
2019-05-21T07:14:12.229Z,36.73
2019-05-21T07:15:33.938Z,38.63
2019-05-21T07:16:39.916Z,35.50
2019-05-21T07:17:45.380Z,34.65
2019-05-21T07:18:59.078Z,38.42
2019-05-21T07:20:02.362Z,36.38
2019-05-21T07:21:07.177Z,40.10
2019-05-21T07:22:13.545Z,41.05
2019-05-21T07:23:18.422Z,42.40
2019-05-21T07:24:27.918Z,40.30
2019-05-21T07:25:30.665Z,40.15
2019-05-21T07:26:36.048Z,40.45
2019-05-21T07:27:41.100Z,41.18
2019-05-21T07:28:47.547Z,40.28
2019-05-21T07:29:54.805Z,40.28
2019-05-21T07:31:01.021Z,39.33
2019-05-21T07:32:06.329Z,41.73
2019-05-21T07:33:14.608Z,40.08
2019-05-21T07:34:19.582Z,38.28
2019-05-21T07:35:26.644Z,43.08
2019-05-21T07:36:34.320Z,44.20
2019-05-21T07:37:39.891Z,40.98
2019-05-21T07:38:53.329Z,37.50
2019-05-21T07:39:51.770Z,34.45
2019-05-21T07:40:56.553Z,35.20
2019-05-21T07:42:04.636Z,35.10
2019-05-21T07:43:13.920Z,35.78
2019-05-21T07:44:20.711Z,32.65
2019-05-21T07:45:25.490Z,34.27
2019-05-21T07:46:31.038Z,34.33
2019-05-21T07:47:38.267Z,33.63
2019-05-21T07:48:51.229Z,34.03
2019-05-21T07:49:57.031Z,33.92
2019-05-21T07:51:04.400Z,34.25
2019-05-21T07:52:13.906Z,34.40
2019-05-21T07:53:19.972Z,31.60
2019-05-21T07:54:31.260Z,32.90
2019-05-21T07:55:39.726Z,35.40
2019-05-21T07:56:47.253Z,32.38
2019-05-21T07:57:54.122Z,33.38
2019-05-21T07:58:59.930Z,33.55
2019-05-21T08:00:06.397Z,32.60
2019-05-21T08:01:11.402Z,31.97
2019-05-21T08:02:16.988Z,31.12
2019-05-21T08:03:24.136Z,30.20
2019-05-21T08:04:32.554Z,30.40
2019-05-21T08:05:41.234Z,29.10
2019-05-21T08:06:52.946Z,30.32
2019-05-21T08:07:58.895Z,31.37
2019-05-21T08:09:14.009Z,28.80
2019-05-21T08:10:14.937Z,30.05
2019-05-21T08:11:21.738Z,30.32
2019-05-21T08:12:39.070Z,30.77
2019-05-21T08:13:44.296Z,31.52
2019-05-21T08:14:49.145Z,30.57
2019-05-21T08:16:01.919Z,33.50
2019-05-21T08:17:06.857Z,30.48
2019-05-21T08:18:13.803Z,29.48
2019-05-21T08:19:19.070Z,31.17
2019-05-21T08:20:25.033Z,31.27
2019-05-21T08:21:30.019Z,31.80
2019-05-21T08:22:35.364Z,31.30
2019-05-21T08:23:44.565Z,32.25
2019-05-21T08:24:49.917Z,32.83
2019-05-21T08:25:59.695Z,30.50
2019-05-21T08:27:08.776Z,33.58
2019-05-21T08:28:13.947Z,31.17
2019-05-21T08:29:19.895Z,31.20
2019-05-21T08:30:28.195Z,31.80
2019-05-21T08:31:36.320Z,30.32
2019-05-21T08:32:41.320Z,32.65
2019-05-21T08:33:47.012Z,33.30
2019-05-21T08:34:52.350Z,34.05
2019-05-21T08:35:59.658Z,35.48
2019-05-21T08:37:05.714Z,34.38
2019-05-21T08:38:12.517Z,32.98
2019-05-21T08:39:28.307Z,30.85
2019-05-21T08:40:25.140Z,30.85
2019-05-21T08:41:30.023Z,31.23
2019-05-21T08:42:38.334Z,31.82
2019-05-21T08:43:43.124Z,29.27
2019-05-21T08:44:48.529Z,30.92
2019-05-21T08:45:53.753Z,32.53
2019-05-21T08:47:01.756Z,31.30
2019-05-21T08:48:13.574Z,34.20
2019-05-21T08:49:21.000Z,34.15
2019-05-21T08:50:26.235Z,31.70
2019-05-21T08:51:34.681Z,31.52
2019-05-21T08:52:39.460Z,31.93
2019-05-21T08:53:45.845Z,30.30
2019-05-21T08:54:56.506Z,31.97
2019-05-21T08:56:02.307Z,30.70
2019-05-21T08:57:07.830Z,32.00
2019-05-21T08:58:13.768Z,31.07
2019-05-21T08:59:20.731Z,30.12
2019-05-21T09:00:26.642Z,31.85
2019-05-21T09:01:32.964Z,29.87
2019-05-21T09:02:38.427Z,31.55
2019-05-21T09:03:43.336Z,31.90
2019-05-21T09:04:52.018Z,31.70
2019-05-21T09:05:56.966Z,26.57
2019-05-21T09:07:02.548Z,27.67
2019-05-21T09:08:07.903Z,27.45
2019-05-21T09:09:13.798Z,25.72
2019-05-21T09:10:19.580Z,26.97
2019-05-21T09:11:31.828Z,26.85
2019-05-21T09:12:38.041Z,25.97
2019-05-21T09:13:43.537Z,25.40
2019-05-21T09:14:48.604Z,22.80
2019-05-21T09:15:55.641Z,24.32
2019-05-21T09:17:02.438Z,22.45
2019-05-21T09:18:08.873Z,21.95
2019-05-21T09:19:14.020Z,22.02
2019-05-21T09:20:21.241Z,22.27
2019-05-21T09:21:28.451Z,22.27
2019-05-21T09:22:33.901Z,21.12
2019-05-21T09:23:38.879Z,22.00
2019-05-21T09:24:46.496Z,19.62
2019-05-21T09:25:52.254Z,20.23
2019-05-21T09:26:57.638Z,20.70
2019-05-21T09:28:04.016Z,21.65
2019-05-21T09:29:09.777Z,20.57
2019-05-21T09:30:15.454Z,20.55
2019-05-21T09:31:24.924Z,22.48
2019-05-21T09:32:30.085Z,22.60
2019-05-21T09:33:41.540Z,23.70
2019-05-21T09:34:49.056Z,21.85
2019-05-21T09:35:58.699Z,22.50
2019-05-21T09:37:18.592Z,21.97
2019-05-21T09:38:11.295Z,21.50
2019-05-21T09:39:24.897Z,20.65
2019-05-21T09:40:37.687Z,23.15
2019-05-21T09:41:42.832Z,22.35
2019-05-21T09:42:49.935Z,19.70
2019-05-21T09:44:17.538Z,20.40
2019-05-21T09:45:23.519Z,23.15
2019-05-21T09:46:32.980Z,21.80
2019-05-21T09:47:38.607Z,22.55
2019-05-21T09:48:43.870Z,21.35
2019-05-21T09:49:49.713Z,23.27
2019-05-21T09:50:57.753Z,23.73
2019-05-21T09:52:06.468Z,21.85
2019-05-21T09:53:11.939Z,20.17
2019-05-21T09:54:18.042Z,19.62
2019-05-21T09:55:26.044Z,20.35
2019-05-21T09:56:34.260Z,22.05
2019-05-21T09:58:34.912Z,21.27
2019-05-21T09:59:58.499Z,19.57
2019-05-21T10:01:20.964Z,17.55
2019-05-21T10:02:29.851Z,19.30
2019-05-21T10:03:37.151Z,18.92
2019-05-21T10:04:42.162Z,19.85
2019-05-21T10:05:50.040Z,18.25
2019-05-21T10:06:55.262Z,19.17
2019-05-21T10:08:01.006Z,18.30
2019-05-21T10:09:12.456Z,19.02
2019-05-21T10:10:18.218Z,19.50
2019-05-21T10:11:30.330Z,20.70
2019-05-21T10:12:37.824Z,21.15
2019-05-21T10:13:47.856Z,18.95
2019-05-21T10:15:04.578Z,17.57
2019-05-21T10:16:11.071Z,18.77
2019-05-21T10:17:39.743Z,18.40
2019-05-21T10:18:45.479Z,18.30
2019-05-21T10:19:58.859Z,16.50
2019-05-21T10:21:06.228Z,16.73
2019-05-21T10:22:21.824Z,19.15
2019-05-21T10:23:27.029Z,15.68
2019-05-21T10:24:32.757Z,19.00
2019-05-21T10:25:42.833Z,18.70
2019-05-21T10:26:50.150Z,20.35
2019-05-21T10:28:11.556Z,21.80
2019-05-21T10:29:19.238Z,20.23
2019-05-21T10:30:27.283Z,19.17
2019-05-21T10:31:35.349Z,21.33
2019-05-21T10:32:42.646Z,22.10
2019-05-21T10:33:49.407Z,19.45
2019-05-21T10:34:58.766Z,20.48
2019-05-21T10:36:15.207Z,19.02
2019-05-21T10:37:23.368Z,18.80
2019-05-21T10:38:31.997Z,20.62
2019-05-21T10:39:44.178Z,20.62
2019-05-21T10:40:51.389Z,20.50
2019-05-21T10:41:56.240Z,20.00
2019-05-21T10:43:15.483Z,22.85
2019-05-21T10:44:24.293Z,19.90
2019-05-21T10:45:43.304Z,20.92
2019-05-21T10:46:55.401Z,19.20
2019-05-21T10:48:01.263Z,19.67
2019-05-21T10:49:06.653Z,19.67
2019-05-21T10:50:14.435Z,21.68
2019-05-21T10:51:19.463Z,21.75
2019-05-21T10:52:27.022Z,20.80
2019-05-21T10:53:34.214Z,21.35
2019-05-21T10:54:39.725Z,22.07
2019-05-21T10:55:45.605Z,21.73
2019-05-21T10:56:53.212Z,21.48
2019-05-21T10:58:03.304Z,20.20
2019-05-21T10:59:11.951Z,19.67
2019-05-21T11:00:23.631Z,19.23
2019-05-21T11:01:38.038Z,20.15
2019-05-21T11:02:48.313Z,20.77
2019-05-21T11:04:10.664Z,22.77
2019-05-21T11:05:23.881Z,21.65
2019-05-21T11:06:31.822Z,21.93
2019-05-21T11:07:36.429Z,19.90
2019-05-21T11:08:43.310Z,20.70
2019-05-21T11:09:48.176Z,21.87
2019-05-21T11:10:55.824Z,25.57
2019-05-21T11:12:01.625Z,21.82
2019-05-21T11:13:07.291Z,23.30
2019-05-21T11:14:13.171Z,27.27
2019-05-21T11:15:21.852Z,23.80
2019-05-21T11:16:26.441Z,22.87
2019-05-21T11:17:48.058Z,22.65
2019-05-21T11:18:38.724Z,22.02
2019-05-21T11:19:48.863Z,22.75
2019-05-21T11:20:55.740Z,23.45
2019-05-21T11:22:07.774Z,23.50
2019-05-21T11:23:17.465Z,22.50
2019-05-21T11:24:30.939Z,22.50
2019-05-21T11:25:40.572Z,22.85
2019-05-21T11:26:48.045Z,24.32
2019-05-21T11:27:53.979Z,23.35
2019-05-21T11:28:59.954Z,23.30
2019-05-21T11:30:14.775Z,23.85
2019-05-21T11:31:29.464Z,25.02
2019-05-21T11:32:35.520Z,28.73
2019-05-21T11:33:43.621Z,29.85
2019-05-21T11:34:54.129Z,26.65
2019-05-21T11:36:05.880Z,26.95
2019-05-21T11:37:11.710Z,25.95
2019-05-21T11:38:37.574Z,25.37
2019-05-21T11:39:32.137Z,29.18
2019-05-21T11:40:50.842Z,24.30
2019-05-21T11:41:54.951Z,22.37
2019-05-21T11:43:00.838Z,24.92
2019-05-21T11:44:06.830Z,25.35
2019-05-21T11:45:13.358Z,23.30
2019-05-21T11:46:22.275Z,24.85
2019-05-21T11:47:31.093Z,23.45
2019-05-21T11:48:37.254Z,22.37
2019-05-21T11:49:43.139Z,23.10
2019-05-21T11:50:49.433Z,24.72
2019-05-21T11:51:55.775Z,26.15
2019-05-21T11:53:00.883Z,25.35
2019-05-21T11:54:08.436Z,26.45
2019-05-21T11:55:15.273Z,25.55
2019-05-21T11:56:22.412Z,22.70
2019-05-21T11:57:27.251Z,25.60
2019-05-21T11:58:39.315Z,24.35
2019-05-21T11:59:39.377Z,25.40
2019-05-21T12:00:48.985Z,24.10
2019-05-21T12:01:54.571Z,23.98
2019-05-21T12:03:00.295Z,23.45
2019-05-21T12:04:05.215Z,24.10
2019-05-21T12:05:13.197Z,24.20
2019-05-21T12:06:20.822Z,23.95
2019-05-21T12:07:26.725Z,25.40
2019-05-21T12:08:34.416Z,27.37
2019-05-21T12:09:43.930Z,26.45
2019-05-21T12:10:49.397Z,25.77
2019-05-21T12:11:54.761Z,26.30
2019-05-21T12:12:59.649Z,24.43
2019-05-21T12:14:19.021Z,24.25
2019-05-21T12:15:17.796Z,26.33
2019-05-21T12:16:22.812Z,26.30
2019-05-21T12:17:33.242Z,25.77
2019-05-21T12:18:39.246Z,28.52
2019-05-21T12:19:45.329Z,26.60
2019-05-21T12:20:50.852Z,24.82
2019-05-21T12:21:55.853Z,26.20
2019-05-21T12:23:03.287Z,26.42
2019-05-21T12:24:12.403Z,25.50
2019-05-21T12:25:25.806Z,27.50
2019-05-21T12:26:30.846Z,26.15
2019-05-21T12:27:38.655Z,29.42
2019-05-21T12:28:46.358Z,29.48
2019-05-21T12:29:55.117Z,28.15
2019-05-21T12:31:08.066Z,28.30
2019-05-21T12:32:15.024Z,27.40
2019-05-21T12:33:21.229Z,28.47
2019-05-21T12:34:28.837Z,26.55
2019-05-21T12:35:58.928Z,30.90
2019-05-21T12:37:00.977Z,29.98
2019-05-21T12:38:05.990Z,27.40
2019-05-21T12:39:14.483Z,27.22
2019-05-21T12:40:26.366Z,31.05
2019-05-21T12:41:36.470Z,29.00
2019-05-21T12:42:49.982Z,28.42
2019-05-21T12:43:55.568Z,27.48
2019-05-21T12:45:00.614Z,27.98
2019-05-21T12:46:06.469Z,30.40
2019-05-21T12:47:12.055Z,28.45
2019-05-21T12:48:21.030Z,28.87
2019-05-21T12:49:29.904Z,27.50
2019-05-21T12:50:42.292Z,28.80
2019-05-21T12:51:56.705Z,28.52
2019-05-21T12:53:02.429Z,27.32
2019-05-21T12:54:15.175Z,28.45
2019-05-21T12:55:21.867Z,28.85
2019-05-21T12:56:28.634Z,30.77
2019-05-21T12:57:34.052Z,29.45
2019-05-21T12:58:41.957Z,29.50
2019-05-21T12:59:47.342Z,29.15
2019-05-21T13:00:52.279Z,29.12
2019-05-21T13:02:00.785Z,28.50
2019-05-21T13:03:05.927Z,27.70
2019-05-21T13:04:11.344Z,26.95
2019-05-21T13:05:19.437Z,29.10
2019-05-21T13:06:30.613Z,28.67
2019-05-21T13:07:35.392Z,28.60
2019-05-21T13:08:45.756Z,29.30
2019-05-21T13:09:50.943Z,28.52
2019-05-21T13:10:56.304Z,30.15
2019-05-21T13:12:02.793Z,29.15
2019-05-21T13:13:11.201Z,30.35
2019-05-21T13:14:18.749Z,30.90
2019-05-21T13:15:23.122Z,30.10
2019-05-21T13:16:33.000Z,29.75
2019-05-21T13:17:39.980Z,36.83
2019-05-21T13:18:45.302Z,29.77
2019-05-21T13:20:01.025Z,29.07
2019-05-21T13:20:57.984Z,30.08
2019-05-21T13:22:04.077Z,31.12
2019-05-21T13:23:14.442Z,30.50
2019-05-21T13:24:34.266Z,29.05
2019-05-21T13:25:44.859Z,31.60
2019-05-21T13:26:50.390Z,29.25
2019-05-21T13:28:01.245Z,29.70
2019-05-21T13:29:32.360Z,30.35
2019-05-21T13:30:49.032Z,30.08
2019-05-21T13:31:57.564Z,30.45
2019-05-21T13:33:02.755Z,30.30
2019-05-21T13:34:11.764Z,30.12
2019-05-21T13:35:16.808Z,28.45
2019-05-21T13:36:22.688Z,30.17
2019-05-21T13:37:29.436Z,32.30
2019-05-21T13:38:40.565Z,31.70
2019-05-21T13:39:49.872Z,34.05
2019-05-21T13:40:56.869Z,31.68
2019-05-21T13:42:03.682Z,30.20
2019-05-21T13:43:13.676Z,30.25
2019-05-21T13:44:22.649Z,29.48
2019-05-21T13:45:29.942Z,31.95
2019-05-21T13:46:39.139Z,31.42
2019-05-21T13:47:42.701Z,33.83
2019-05-21T13:48:49.685Z,36.42
2019-05-21T13:49:55.313Z,34.53
2019-05-21T13:51:01.392Z,37.95
2019-05-21T13:52:12.754Z,35.68
2019-05-21T13:53:18.208Z,37.80
2019-05-21T13:54:25.878Z,37.93
2019-05-21T13:55:33.981Z,37.93
2019-05-21T13:56:41.302Z,38.38
2019-05-21T13:57:49.025Z,36.70
2019-05-21T13:59:01.818Z,39.55
2019-05-21T14:00:10.178Z,38.85
2019-05-21T14:01:19.737Z,39.48
2019-05-21T14:02:27.515Z,36.23
2019-05-21T14:03:33.210Z,34.80
2019-05-21T14:04:39.259Z,34.65
2019-05-21T14:05:46.454Z,35.17
2019-05-21T14:06:51.803Z,34.18
2019-05-21T14:07:57.252Z,35.08
2019-05-21T14:09:02.253Z,32.00
2019-05-21T14:10:16.793Z,33.28
2019-05-21T14:11:19.134Z,33.15
2019-05-21T14:12:25.921Z,32.03
2019-05-21T14:13:36.569Z,33.98
2019-05-21T14:14:42.294Z,30.50
2019-05-21T14:15:47.550Z,28.25
2019-05-21T14:16:56.055Z,29.45
2019-05-21T14:18:02.910Z,30.40
2019-05-21T14:19:09.367Z,30.82
2019-05-21T14:20:14.570Z,30.50
2019-05-21T14:21:25.421Z,32.15
2019-05-21T14:22:30.835Z,30.02
2019-05-21T14:23:41.217Z,29.92
2019-05-21T14:24:47.396Z,28.95
2019-05-21T14:25:55.375Z,27.90
2019-05-21T14:27:08.800Z,29.02
2019-05-21T14:28:28.301Z,26.90
2019-05-21T14:29:46.719Z,27.87
2019-05-21T14:30:58.993Z,30.65
2019-05-21T14:32:09.769Z,30.20
2019-05-21T14:33:25.274Z,27.82